Time;durP1;ratioP1;P1;durP2;ratioP2;P2;SDS_P1;SDS_P2;PMS_P1;PMS_P2;Temp;Humidity;BMP_temperature;BMP_pressure;BME280_temperature;BME280_humidity;BME280_pressure;Samples;Min_cycle;Max_cycle;Signal;HPM_P1;HPM_P2
2021/12/19 00:01:54;;;;;;;;;;;;;;;;;;5083394;28;1282;-78
2021/12/19 00:08:28;;;;;;;;;;;;;;;;;;5087704;28;1347;-78
2021/12/19 00:09:52;;;;;;;;;;;;;;;;;;5064910;28;1073;-77
2021/12/19 00:12:17;;;;;;;;;;;;;;;;;;5064134;28;1256;-78
2021/12/19 00:14:43;;;;;;;;;;;;;;;;;;5048059;28;1199;-78
2021/12/19 00:17:09;;;;;;;;;;;;;;;;;;5048930;28;1184;-79
2021/12/19 00:19:34;;;;;;;;;;;;;;;;;;5063647;28;1893;-79
2021/12/19 00:22:00;;;;;;;;;;;;;;;;;;5049082;28;1157;-79
2021/12/19 00:24:25;;;;;;;;;;;;;;;;;;5067118;28;1321;-79
2021/12/19 00:26:51;;;;;;;;;;;;;;;;;;5073330;28;1353;-79
2021/12/19 00:29:17;;;;;;;;;;;;;;;;;;5084768;28;1214;-79
2021/12/19 00:31:45;;;;;;;;;;;;;;;;;;5072582;28;1361;-79
2021/12/19 00:34:11;;;;;;;;;;;;;;;;;;5089807;28;1167;-79
2021/12/19 00:36:36;;;;;;;;;;;;;;;;;;5052854;28;1275;-79
2021/12/19 00:39:02;;;;;;;;;;;;;;;;;;5064662;28;1906;-79
2021/12/19 00:41:30;;;;;;;;;;;;;;;;;;5082164;28;1153;-79
2021/12/19 00:44:07;;;;;;;;;;;;;;;;;;5070182;28;1370;-79
2021/12/19 00:46:42;;;;;;;;;;;;;;;;;;5063292;28;1305;-78
2021/12/19 00:49:08;;;;;;;;;;;;;;;;;;5066633;28;1222;-78
2021/12/19 00:51:33;;;;;;;;;;;;;;;;;;5081162;28;1084;-79
2021/12/19 00:53:58;;;;;;;;;;;;;;;;;;5085331;28;1068;-78
2021/12/19 00:56:25;;;;;;;;;;;;;;;;;;5073660;28;1152;-78
2021/12/19 00:58:51;;;;;;;;;;;;;;;;;;5046194;28;1890;-78
2021/12/19 01:01:17;;;;;;;;;;;;;;;;;;5064657;28;1187;-78
2021/12/19 01:03:52;;;;;;;;;;;;;;;;;;5062862;28;1434;-77
2021/12/19 01:06:18;;;;;;;;;;;;;;;;;;5081948;28;1108;-77
2021/12/19 01:08:50;;;;;;;;;;;;;;;;;;5079923;28;1160;-78
2021/12/19 01:11:16;;;;;;;;;;;;;;;;;;5064503;28;1044;-77
2021/12/19 01:13:41;;;;;;;;;;;;;;;;;;5068337;28;1241;-79
2021/12/19 01:16:06;;;;;;;;;;;;;;;;;;5063911;28;1211;-79
2021/12/19 01:18:32;;;;;;;;;;;;;;;;;;5065514;28;1890;-77
2021/12/19 01:20:57;;;;;;;;;;;;;;;;;;5053129;28;1222;-77
2021/12/19 01:23:22;;;;;;;;;;;;;;;;;;5050312;28;1251;-78
2021/12/19 01:25:54;;;;;;;;;;;;;;;;;;5070610;28;1285;-78
2021/12/19 01:28:19;;;;;;;;;;;;;;;;;;5066574;28;1273;-79
2021/12/19 01:30:55;;;;;;;;;;;;;;;;;;5079810;28;1233;-78
2021/12/19 01:33:21;;;;;;;;;;;;;;;;;;5064336;28;1132;-78
2021/12/19 01:35:55;;;;;;;;;;;;;;;;;;5068782;28;1121;-78
2021/12/19 01:38:21;;;;;;;;;;;;;;;;;;5084324;28;1910;-78
2021/12/19 01:40:52;;;;;;;;;;;;;;;;;;5084803;28;1227;-78
2021/12/19 01:43:20;;;;;;;;;;;;;;;;;;5066303;28;1179;-78
2021/12/19 01:45:45;;;;;;;;;;;;;;;;;;5081744;28;1188;-78
2021/12/19 01:48:11;;;;;;;;;;;;;;;;;;5083091;28;1305;-78
2021/12/19 01:50:37;;;;;;;;;;;;;;;;;;5063765;28;1178;-79
2021/12/19 01:53:04;;;;;;;;;;;;;;;;;;5068348;28;1215;-79
2021/12/19 01:55:29;;;;;;;;;;;;;;;;;;5084284;28;1268;-78
2021/12/19 01:57:55;;;;;;;;;;;;;;;;;;5045740;28;1675;-78
2021/12/19 02:00:26;;;;;;;;;;;;;;;;;;5047317;28;1898;-77
2021/12/19 02:02:52;;;;;;;;;;;;;;;;;;5064754;28;1232;-78
2021/12/19 02:05:19;;;;;;;;;;;;;;;;;;5059094;28;1380;-79
2021/12/19 02:07:47;;;;;;;;;;;;;;;;;;5062008;28;1289;-77
2021/12/19 02:10:14;;;;;;;;;;;;;;;;;;5064908;28;1246;-78
2021/12/19 02:12:39;;;;;;;;;;;;;;;;;;5048002;28;1292;-78
2021/12/19 02:15:05;;;;;;;;;;;;;;;;;;5061977;28;1129;-77
2021/12/19 02:17:31;;;;;;;;;;;;;;;;;;5064606;28;1184;-77
2021/12/19 02:19:57;;;;;;;;;;;;;;;;;;5059543;28;1886;-77
2021/12/19 02:22:22;;;;;;;;;;;;;;;;;;5063859;28;1190;-78
2021/12/19 02:24:47;;;;;;;;;;;;;;;;;;5063239;28;1310;-78
2021/12/19 02:27:12;;;;;;;;;;;;;;;;;;5059956;28;1211;-78
2021/12/19 02:29:38;;;;;;;;;;;;;;;;;;5052433;28;1546;-78
2021/12/19 02:32:05;;;;;;;;;;;;;;;;;;5081866;28;1144;-79
2021/12/19 02:34:41;;;;;;;;;;;;;;;;;;5073940;28;1188;-80
2021/12/19 02:37:19;;;;;;;;;;;;;;;;;;5079055;28;1088;-77
2021/12/19 02:50:16;;;;;;;;;;;;;;;;;;5060922;28;976;-78
2021/12/19 02:52:41;;;;;;;;;;;;;;;;;;5061656;28;1258;-78
2021/12/19 02:55:07;;;;;;;;;;;;;;;;;;5063494;28;1192;-78
2021/12/19 02:57:32;;;;;;;;;;;;;;;;;;5065554;28;1186;-75
2021/12/19 02:59:58;;;;;;;;;;;;;;;;;;5089222;28;1950;-79
2021/12/19 03:02:23;;;;;;;;;;;;;;;;;;5083479;28;1187;-78
2021/12/19 03:04:59;;;;;;;;;;;;;;;;;;5082060;28;1608;-79
2021/12/19 03:07:25;;;;;;;;;;;;;;;;;;5081868;28;1269;-78
2021/12/19 03:10:19;;;;;;;;;;;;;;;;;;5071259;28;1175;-78
2021/12/19 03:18:07;;;;;;;;;;;;;;;;;;5065708;28;1005;-78
2021/12/19 03:20:32;;;;;;;;;;;;;;;;;;5067678;28;1897;-79
2021/12/19 03:22:58;;;;;;;;;;;;;;;;;;5055434;28;1223;-79
2021/12/19 03:25:24;;;;;;;;;;;;;;;;;;5083041;28;1151;-78
2021/12/19 03:27:53;;;;;;;;;;;;;;;;;;5083220;28;1219;-77
2021/12/19 03:30:18;;;;;;;;;;;;;;;;;;5074057;28;1209;-78
2021/12/19 03:32:44;;;;;;;;;;;;;;;;;;5064116;28;1208;-78
2021/12/19 03:35:10;;;;;;;;;;;;;;;;;;5065420;28;1274;-79
2021/12/19 03:37:35;;;;;;;;;;;;;;;;;;5057194;28;1266;-78
2021/12/19 03:40:11;;;;;;;;;;;;;;;;;;5068781;28;1981;-78
2021/12/19 03:42:41;;;;;;;;;;;;;;;;;;5048373;28;1265;-77
2021/12/19 03:45:08;;;;;;;;;;;;;;;;;;5080029;28;1344;-78
2021/12/19 03:47:33;;;;;;;;;;;;;;;;;;5069031;28;1076;-77
2021/12/19 03:50:01;;;;;;;;;;;;;;;;;;5064790;28;1129;-77
2021/12/19 03:52:26;;;;;;;;;;;;;;;;;;5064153;28;1166;-77
2021/12/19 03:54:52;;;;;;;;;;;;;;;;;;5058357;28;1199;-77
2021/12/19 03:57:17;;;;;;;;;;;;;;;;;;5083611;28;1057;-79
2021/12/19 03:59:46;;;;;;;;;;;;;;;;;;5087493;28;1897;-79
2021/12/19 04:02:12;;;;;;;;;;;;;;;;;;5063349;28;1243;-78
2021/12/19 04:04:39;;;;;;;;;;;;;;;;;;5071299;28;1152;-78
2021/12/19 04:07:04;;;;;;;;;;;;;;;;;;5063339;28;1253;-78
2021/12/19 04:09:29;;;;;;;;;;;;;;;;;;5066957;28;1316;-78
2021/12/19 04:11:55;;;;;;;;;;;;;;;;;;5069974;28;1358;-78
2021/12/19 04:14:21;;;;;;;;;;;;;;;;;;5086010;28;1419;-78
2021/12/19 04:16:46;;;;;;;;;;;;;;;;;;5087154;28;1156;-78
2021/12/19 04:19:12;;;;;;;;;;;;;;;;;;5083636;28;1898;-78
2021/12/19 04:21:37;;;;;;;;;;;;;;;;;;5072814;28;1212;-79
2021/12/19 04:24:03;;;;;;;;;;;;;;;;;;5087660;28;1506;-77
2021/12/19 04:26:32;;;;;;;;;;;;;;;;;;5080888;28;1265;-77
2021/12/19 04:28:58;;;;;;;;;;;;;;;;;;5088635;28;1297;-78
2021/12/19 04:31:23;;;;;;;;;;;;;;;;;;5058823;28;1255;-78
2021/12/19 04:33:49;;;;;;;;;;;;;;;;;;5068060;28;1242;-78
2021/12/19 04:36:22;;;;;;;;;;;;;;;;;;5076750;28;1184;-78
2021/12/19 04:59:59;;;;;;;;;;;;;;;;;;5088375;28;1944;-78
2021/12/19 05:16:00;;;;;;;;;;;;;;;;;;5066661;28;1028;-79
2021/12/19 05:18:31;;;;;;;;;;;;;;;;;;5077345;28;1882;-79
2021/12/19 05:21:05;;;;;;;;;;;;;;;;;;5082727;28;1123;-77
2021/12/19 05:25:56;;;;;;;;;;;;;;;;;;5073162;28;1199;-78
2021/12/19 05:28:21;;;;;;;;;;;;;;;;;;5056528;28;1260;-78
2021/12/19 05:30:46;;;;;;;;;;;;;;;;;;5069629;28;1207;-79
2021/12/19 05:33:12;;;;;;;;;;;;;;;;;;5077663;28;1183;-79
2021/12/19 05:46:38;;;;;;;;;;;;;;;;;;5085059;28;1035;-80
2021/12/19 05:49:04;;;;;;;;;;;;;;;;;;5076026;28;1199;-79
2021/12/19 05:51:30;;;;;;;;;;;;;;;;;;5045805;28;1456;-79
2021/12/19 05:53:55;;;;;;;;;;;;;;;;;;5062984;28;1294;-79
2021/12/19 05:56:20;;;;;;;;;;;;;;;;;;5065418;28;1180;-79
2021/12/19 05:58:46;;;;;;;;;;;;;;;;;;5045861;28;1897;-80
2021/12/19 06:01:11;;;;;;;;;;;;;;;;;;5064198;28;1262;-79
2021/12/19 06:03:37;;;;;;;;;;;;;;;;;;5048670;28;1321;-80
2021/12/19 06:06:02;;;;;;;;;;;;;;;;;;5065397;28;1215;-78
2021/12/19 06:08:27;;;;;;;;;;;;;;;;;;5043130;28;1288;-79
2021/12/19 06:10:53;;;;;;;;;;;;;;;;;;5056204;28;1204;-79
2021/12/19 06:13:18;;;;;;;;;;;;;;;;;;5080862;28;1176;-79
2021/12/19 06:15:44;;;;;;;;;;;;;;;;;;5083332;28;1285;-77
2021/12/19 06:18:10;;;;;;;;;;;;;;;;;;5065982;28;1329;-78
2021/12/19 06:20:35;;;;;;;;;;;;;;;;;;5049617;28;1886;-79
2021/12/19 06:23:01;;;;;;;;;;;;;;;;;;5064033;28;1242;-79
2021/12/19 06:25:26;;;;;;;;;;;;;;;;;;5064937;28;1285;-79
2021/12/19 06:27:52;;;;;;;;;;;;;;;;;;5059918;28;1176;-78
2021/12/19 06:30:17;;;;;;;;;;;;;;;;;;5063982;28;1188;-79
2021/12/19 06:32:43;;;;;;;;;;;;;;;;;;5063316;28;1215;-80
2021/12/19 06:35:17;;;;;;;;;;;;;;;;;;5071098;28;1141;-78
2021/12/19 06:37:44;;;;;;;;;;;;;;;;;;5057944;28;1120;-78
2021/12/19 06:40:11;;;;;;;;;;;;;;;;;;5066837;28;1971;-80
2021/12/19 06:42:37;;;;;;;;;;;;;;;;;;5069037;28;1250;-79
2021/12/19 06:45:03;;;;;;;;;;;;;;;;;;5072360;28;1546;-79
2021/12/19 06:47:28;;;;;;;;;;;;;;;;;;5080624;28;1186;-79
2021/12/19 06:49:53;;;;;;;;;;;;;;;;;;5049490;28;1304;-78
2021/12/19 06:52:19;;;;;;;;;;;;;;;;;;5046172;28;1214;-78
2021/12/19 06:54:44;;;;;;;;;;;;;;;;;;5066230;28;1156;-78
2021/12/19 06:57:09;;;;;;;;;;;;;;;;;;5081760;28;1195;-80
2021/12/19 06:59:34;;;;;;;;;;;;;;;;;;5076170;28;1926;-78
2021/12/19 07:02:00;;;;;;;;;;;;;;;;;;5045806;28;1285;-78
2021/12/19 07:04:25;;;;;;;;;;;;;;;;;;5065435;28;1063;-78
2021/12/19 07:06:50;;;;;;;;;;;;;;;;;;5057602;28;1266;-78
2021/12/19 07:09:16;;;;;;;;;;;;;;;;;;5062893;28;1228;-76
2021/12/19 07:11:43;;;;;;;;;;;;;;;;;;5047674;28;1405;-79
2021/12/19 07:14:08;;;;;;;;;;;;;;;;;;5086919;28;1379;-78
2021/12/19 07:16:33;;;;;;;;;;;;;;;;;;5085376;28;1173;-78
2021/12/19 07:18:58;;;;;;;;;;;;;;;;;;5067223;28;1930;-78
2021/12/19 07:21:25;;;;;;;;;;;;;;;;;;5050419;28;1254;-78
2021/12/19 07:23:51;;;;;;;;;;;;;;;;;;5065343;28;1264;-78
2021/12/19 07:26:16;;;;;;;;;;;;;;;;;;5068261;28;1125;-78
2021/12/19 07:28:44;;;;;;;;;;;;;;;;;;5077451;28;1373;-79
2021/12/19 07:31:09;;;;;;;;;;;;;;;;;;5066816;28;1273;-78
2021/12/19 07:33:37;;;;;;;;;;;;;;;;;;5054712;28;1150;-79
2021/12/19 07:36:03;;;;;;;;;;;;;;;;;;5086141;28;1207;-78
2021/12/19 07:38:35;;;;;;;;;;;;;;;;;;5064314;28;1178;-78
2021/12/19 07:41:02;;;;;;;;;;;;;;;;;;5057633;28;1330;-79
2021/12/19 07:43:28;;;;;;;;;;;;;;;;;;5064983;28;1132;-78
2021/12/19 07:45:53;;;;;;;;;;;;;;;;;;5051115;28;1268;-78
2021/12/19 07:48:19;;;;;;;;;;;;;;;;;;5057868;28;1249;-78
2021/12/19 07:50:44;;;;;;;;;;;;;;;;;;5075246;28;1320;-77
2021/12/19 07:53:10;;;;;;;;;;;;;;;;;;5062031;28;1250;-79
2021/12/19 07:55:35;;;;;;;;;;;;;;;;;;5084346;28;1262;-78
2021/12/19 07:58:00;;;;;;;;;;;;;;;;;;5084187;28;1151;-78
2021/12/19 08:00:26;;;;;;;;;;;;;;;;;;5083993;28;1898;-77
2021/12/19 08:02:51;;;;;;;;;;;;;;;;;;5080668;28;1367;-78
2021/12/19 08:05:25;;;;;;;;;;;;;;;;;;5088974;28;1164;-79
2021/12/19 08:07:56;;;;;;;;;;;;;;;;;;5084357;28;1136;-79
2021/12/19 08:12:48;;;;;;;;;;;;;;;;;;5069360;28;1105;-78
2021/12/19 08:15:15;;;;;;;;;;;;;;;;;;5049387;28;1331;-77
2021/12/19 08:17:41;;;;;;;;;;;;;;;;;;5065614;28;1168;-78
2021/12/19 08:20:09;;;;;;;;;;;;;;;;;;5060227;28;1949;-78
2021/12/19 08:22:36;;;;;;;;;;;;;;;;;;5072048;28;1207;-79
2021/12/19 08:25:03;;;;;;;;;;;;;;;;;;5069455;28;1458;-77
2021/12/19 08:27:28;;;;;;;;;;;;;;;;;;5062285;28;1205;-78
2021/12/19 08:29:54;;;;;;;;;;;;;;;;;;5071597;28;1152;-79
2021/12/19 08:32:23;;;;;;;;;;;;;;;;;;5055624;28;1241;-79
2021/12/19 08:34:49;;;;;;;;;;;;;;;;;;5049456;28;1289;-78
2021/12/19 08:37:15;;;;;;;;;;;;;;;;;;5065277;28;1194;-80
2021/12/19 08:39:41;;;;;;;;;;;;;;;;;;5082980;28;1945;-77
2021/12/19 08:42:09;;;;;;;;;;;;;;;;;;5084378;28;1213;-79
2021/12/19 08:44:35;;;;;;;;;;;;;;;;;;5066951;28;1346;-78
2021/12/19 08:47:00;;;;;;;;;;;;;;;;;;5087271;28;1427;-78
2021/12/19 08:49:26;;;;;;;;;;;;;;;;;;5076559;28;1258;-79
2021/12/19 08:51:51;;;;;;;;;;;;;;;;;;5064427;28;1362;-78
2021/12/19 08:54:16;;;;;;;;;;;;;;;;;;5069117;28;1184;-78
2021/12/19 08:56:42;;;;;;;;;;;;;;;;;;5065788;28;1282;-78
2021/12/19 08:59:09;;;;;;;;;;;;;;;;;;5081019;28;1951;-77
2021/12/19 09:01:34;;;;;;;;;;;;;;;;;;5078142;28;1345;-79
2021/12/19 09:04:00;;;;;;;;;;;;;;;;;;5085378;28;1264;-78
2021/12/19 09:06:26;;;;;;;;;;;;;;;;;;5076168;28;1341;-78
2021/12/19 09:08:52;;;;;;;;;;;;;;;;;;5061201;28;1103;-78
2021/12/19 09:11:17;;;;;;;;;;;;;;;;;;5079159;28;1352;-79
2021/12/19 09:13:42;;;;;;;;;;;;;;;;;;5071072;28;1092;-78
2021/12/19 09:16:07;;;;;;;;;;;;;;;;;;5069111;28;1317;-78
2021/12/19 09:18:33;;;;;;;;;;;;;;;;;;5065920;28;1189;-77
2021/12/19 09:20:58;;;;;;;;;;;;;;;;;;5064738;28;1941;-78
2021/12/19 09:23:34;;;;;;;;;;;;;;;;;;5050022;28;1364;-79
2021/12/19 09:26:00;;;;;;;;;;;;;;;;;;5071937;28;1195;-78
2021/12/19 09:28:44;;;;;;;;;;;;;;;;;;5065336;28;1136;-79
2021/12/19 09:31:09;;;;;;;;;;;;;;;;;;5085399;28;1154;-79
2021/12/19 09:33:34;;;;;;;;;;;;;;;;;;5081944;28;1340;-78
2021/12/19 09:36:00;;;;;;;;;;;;;;;;;;5086521;28;1323;-78
2021/12/19 09:38:27;;;;;;;;;;;;;;;;;;5070349;28;1286;-78
2021/12/19 09:40:59;;;;;;;;;;;;;;;;;;5083030;28;1898;-78
2021/12/19 09:43:42;;;;;;;;;;;;;;;;;;5069086;28;1312;-78
2021/12/19 09:46:15;;;;;;;;;;;;;;;;;;5065910;28;1151;-78
2021/12/19 09:48:41;;;;;;;;;;;;;;;;;;5063111;28;1293;-78
2021/12/19 09:51:08;;;;;;;;;;;;;;;;;;5065688;28;1188;-78
2021/12/19 09:53:34;;;;;;;;;;;;;;;;;;5061003;28;1190;-78
2021/12/19 09:56:00;;;;;;;;;;;;;;;;;;5085024;28;1147;-77
2021/12/19 09:58:29;;;;;;;;;;;;;;;;;;5067221;28;1219;-78
2021/12/19 10:00:54;;;;;;;;;;;;;;;;;;5067036;28;1886;-78
2021/12/19 10:03:20;;;;;;;;;;;;;;;;;;5060540;28;1194;-78
2021/12/19 10:05:45;;;;;;;;;;;;;;;;;;5060449;28;1188;-78
2021/12/19 10:08:11;;;;;;;;;;;;;;;;;;5082787;28;1222;-77
2021/12/19 10:10:47;;;;;;;;;;;;;;;;;;5081166;28;1182;-78
2021/12/19 10:13:13;;;;;;;;;;;;;;;;;;5076680;28;1253;-78
2021/12/19 10:15:41;;;;;;;;;;;;;;;;;;5071525;28;997;-78
2021/12/19 10:18:10;;;;;;;;;;;;;;;;;;5063517;28;1200;-80
2021/12/19 10:20:40;;;;;;;;;;;;;;;;;;5081146;28;1882;-77
2021/12/19 10:23:11;;;;;;;;;;;;;;;;;;5082642;28;1206;-78
2021/12/19 10:25:36;;;;;;;;;;;;;;;;;;5081998;28;1274;-77
2021/12/19 10:28:03;;;;;;;;;;;;;;;;;;5047698;28;1179;-77
2021/12/19 10:30:38;;;;;;;;;;;;;;;;;;5073879;28;1296;-79
2021/12/19 10:33:22;;;;;;;;;;;;;;;;;;5066846;28;1290;-79
2021/12/19 10:35:50;;;;;;;;;;;;;;;;;;5063588;28;1259;-78
2021/12/19 10:38:16;;;;;;;;;;;;;;;;;;5061912;28;1192;-78
2021/12/19 10:40:45;;;;;;;;;;;;;;;;;;5082238;28;1906;-79
2021/12/19 10:43:16;;;;;;;;;;;;;;;;;;5083534;28;1424;-78
2021/12/19 10:45:46;;;;;;;;;;;;;;;;;;5081451;28;1100;-77
2021/12/19 10:48:17;;;;;;;;;;;;;;;;;;5063007;28;1217;-78
2021/12/19 10:50:44;;;;;;;;;;;;;;;;;;5072632;28;1378;-79
2021/12/19 10:53:09;;;;;;;;;;;;;;;;;;5080461;28;1155;-80
2021/12/19 10:55:36;;;;;;;;;;;;;;;;;;5077786;28;1172;-78
2021/12/19 10:58:01;;;;;;;;;;;;;;;;;;5062627;28;1223;-79
2021/12/19 11:00:27;;;;;;;;;;;;;;;;;;5069793;28;1885;-79
2021/12/19 11:02:53;;;;;;;;;;;;;;;;;;5083189;28;1246;-79
2021/12/19 11:05:41;;;;;;;;;;;;;;;;;;5065512;28;1244;-80
2021/12/19 11:08:08;;;;;;;;;;;;;;;;;;5081934;28;1167;-79
2021/12/19 11:10:35;;;;;;;;;;;;;;;;;;5082892;28;1159;-78
2021/12/19 11:13:07;;;;;;;;;;;;;;;;;;5081708;28;1169;-78
2021/12/19 11:15:37;;;;;;;;;;;;;;;;;;5083711;28;1356;-78
2021/12/19 11:18:02;;;;;;;;;;;;;;;;;;5083173;28;1147;-79
2021/12/19 11:20:28;;;;;;;;;;;;;;;;;;5084342;28;1898;-79
2021/12/19 11:22:54;;;;;;;;;;;;;;;;;;5079688;28;1254;-79
2021/12/19 11:25:20;;;;;;;;;;;;;;;;;;5078750;28;1294;-78
2021/12/19 11:27:46;;;;;;;;;;;;;;;;;;5045835;28;1211;-79
2021/12/19 11:30:14;;;;;;;;;;;;;;;;;;5065668;28;1136;-79
2021/12/19 11:32:58;;;;;;;;;;;;;;;;;;5061980;28;1148;-79
2021/12/19 11:35:26;;;;;;;;;;;;;;;;;;5065343;28;1160;-79
2021/12/19 11:37:53;;;;;;;;;;;;;;;;;;5067697;28;1144;-79
2021/12/19 11:40:19;;;;;;;;;;;;;;;;;;5083284;28;1913;-79
2021/12/19 11:42:45;;;;;;;;;;;;;;;;;;5080026;28;1451;-79
2021/12/19 11:45:39;;;;;;;;;;;;;;;;;;5081249;28;1169;-81
2021/12/19 11:48:16;;;;;;;;;;;;;;;;;;5082789;28;1689;-81
2021/12/19 11:50:49;;;;;;;;;;;;;;;;;;5073615;28;1152;-78
2021/12/19 11:53:15;;;;;;;;;;;;;;;;;;5080099;28;1235;-76
2021/12/19 11:55:47;;;;;;;;;;;;;;;;;;5070799;28;1150;-76
2021/12/19 11:58:13;;;;;;;;;;;;;;;;;;5067061;28;1256;-76
2021/12/19 12:00:40;;;;;;;;;;;;;;;;;;5065987;28;1885;-76
2021/12/19 12:03:12;;;;;;;;;;;;;;;;;;5081428;28;1342;-76
2021/12/19 12:05:44;;;;;;;;;;;;;;;;;;5088380;28;1227;-76
2021/12/19 12:08:12;;;;;;;;;;;;;;;;;;5076494;28;1211;-76
2021/12/19 12:11:07;;;;;;;;;;;;;;;;;;5071308;28;1303;-76
2021/12/19 12:13:44;;;;;;;;;;;;;;;;;;5081117;28;1160;-77
2021/12/19 12:16:18;;;;;;;;;;;;;;;;;;5066751;28;1306;-79
2021/12/19 12:18:43;;;;;;;;;;;;;;;;;;5064400;28;1968;-77
2021/12/19 12:21:27;;;;;;;;;;;;;;;;;;5064683;28;1392;-77
2021/12/19 12:23:54;;;;;;;;;;;;;;;;;;5069357;28;1222;-78
2021/12/19 12:26:42;;;;;;;;;;;;;;;;;;5087218;28;1136;-77
2021/12/19 12:29:07;;;;;;;;;;;;;;;;;;5081915;28;1368;-78
2021/12/19 12:31:33;;;;;;;;;;;;;;;;;;5083933;28;1267;-77
2021/12/19 12:33:59;;;;;;;;;;;;;;;;;;5085234;28;1021;-77
2021/12/19 12:36:25;;;;;;;;;;;;;;;;;;5065465;28;1427;-77
2021/12/19 12:38:52;;;;;;;;;;;;;;;;;;5052973;28;1977;-77
2021/12/19 12:41:39;;;;;;;;;;;;;;;;;;5085305;28;1246;-76
2021/12/19 12:44:06;;;;;;;;;;;;;;;;;;5083021;28;1147;-74
2021/12/19 12:46:32;;;;;;;;;;;;;;;;;;5084907;28;1171;-76
2021/12/19 12:49:00;;;;;;;;;;;;;;;;;;5062922;28;1317;-76
2021/12/19 12:51:30;;;;;;;;;;;;;;;;;;5068105;28;1040;-76
2021/12/19 12:54:20;;;;;;;;;;;;;;;;;;5076130;28;1302;-74
2021/12/19 12:56:49;;;;;;;;;;;;;;;;;;5075695;28;1275;-75
2021/12/19 12:59:16;;;;;;;;;;;;;;;;;;5089419;28;1862;-76
2021/12/19 13:01:49;;;;;;;;;;;;;;;;;;5064280;28;1430;-76
2021/12/19 13:04:14;;;;;;;;;;;;;;;;;;5052537;28;1580;-79
2021/12/19 13:06:45;;;;;;;;;;;;;;;;;;5078728;28;1072;-77
2021/12/19 13:09:44;;;;;;;;;;;;;;;;;;5075805;28;1251;-77
2021/12/19 13:12:21;;;;;;;;;;;;;;;;;;5038680;28;1374;-77
2021/12/19 13:14:48;;;;;;;;;;;;;;;;;;5067265;28;1187;-74
2021/12/19 13:17:14;;;;;;;;;;;;;;;;;;5076988;28;1402;-76
2021/12/19 13:20:10;;;;;;;;;;;;;;;;;;5065949;28;1971;-75
2021/12/19 13:22:35;;;;;;;;;;;;;;;;;;5078733;28;1166;-76
2021/12/19 13:25:12;;;;;;;;;;;;;;;;;;5080959;28;1290;-82
2021/12/19 13:27:41;;;;;;;;;;;;;;;;;;5066854;28;1120;-84
2021/12/19 13:30:27;;;;;;;;;;;;;;;;;;5071938;28;1302;-83
2021/12/19 13:32:55;;;;;;;;;;;;;;;;;;5062577;28;1289;-83
2021/12/19 13:35:23;;;;;;;;;;;;;;;;;;5075501;28;1215;-82
2021/12/19 13:37:54;;;;;;;;;;;;;;;;;;5066781;28;1237;-82
2021/12/19 13:40:20;;;;;;;;;;;;;;;;;;5075218;28;1945;-83
2021/12/19 13:42:51;;;;;;;;;;;;;;;;;;5052969;28;1350;-82
2021/12/19 13:45:20;;;;;;;;;;;;;;;;;;5068170;28;1152;-83
2021/12/19 13:47:51;;;;;;;;;;;;;;;;;;5080017;28;1284;-83
2021/12/19 13:50:16;;;;;;;;;;;;;;;;;;5066749;28;1222;-83
2021/12/19 13:52:42;;;;;;;;;;;;;;;;;;5062693;28;1291;-83
2021/12/19 13:55:09;;;;;;;;;;;;;;;;;;5082553;28;1124;-84
2021/12/19 13:57:35;;;;;;;;;;;;;;;;;;5077729;28;1238;-84
2021/12/19 14:00:00;;;;;;;;;;;;;;;;;;5072888;28;1921;-84
2021/12/19 14:02:25;;;;;;;;;;;;;;;;;;5076751;28;1128;-81
2021/12/19 14:04:54;;;;;;;;;;;;;;;;;;5051010;28;1208;-82
2021/12/19 14:07:28;;;;;;;;;;;;;;;;;;5052489;28;1100;-83
2021/12/19 14:09:57;;;;;;;;;;;;;;;;;;5066018;28;1326;-82
2021/12/19 14:12:52;;;;;;;;;;;;;;;;;;5047209;28;1215;-83
2021/12/19 14:15:17;;;;;;;;;;;;;;;;;;5065487;28;1200;-83
2021/12/19 14:17:42;;;;;;;;;;;;;;;;;;5064455;28;1194;-82
2021/12/19 14:20:08;;;;;;;;;;;;;;;;;;5063195;28;1915;-83
2021/12/19 14:22:33;;;;;;;;;;;;;;;;;;5068453;28;1167;-82
2021/12/19 14:24:59;;;;;;;;;;;;;;;;;;5047774;28;1336;-82
2021/12/19 14:27:26;;;;;;;;;;;;;;;;;;5048543;28;1250;-83
2021/12/19 14:29:55;;;;;;;;;;;;;;;;;;5080168;28;1203;-82
2021/12/19 14:32:37;;;;;;;;;;;;;;;;;;5069787;28;1236;-82
2021/12/19 14:35:07;;;;;;;;;;;;;;;;;;5068750;28;1251;-83
2021/12/19 14:37:33;;;;;;;;;;;;;;;;;;5059093;28;1218;-82
2021/12/19 14:40:08;;;;;;;;;;;;;;;;;;5056114;28;1894;-82
2021/12/19 14:42:38;;;;;;;;;;;;;;;;;;5066548;28;1309;-83
2021/12/19 14:45:06;;;;;;;;;;;;;;;;;;5073059;28;1145;-82
2021/12/19 14:47:38;;;;;;;;;;;;;;;;;;5073983;28;1329;-84
2021/12/19 14:50:13;;;;;;;;;;;;;;;;;;5078624;28;1237;-82
2021/12/19 14:52:38;;;;;;;;;;;;;;;;;;5065846;28;1195;-83
2021/12/19 14:55:14;;;;;;;;;;;;;;;;;;5065553;28;1290;-83
2021/12/19 14:57:39;;;;;;;;;;;;;;;;;;5066222;28;1079;-83
2021/12/19 15:00:06;;;;;;;;;;;;;;;;;;5060810;28;1922;-83
2021/12/19 15:02:31;;;;;;;;;;;;;;;;;;5075768;28;1338;-82
2021/12/19 15:04:56;;;;;;;;;;;;;;;;;;5086061;28;1280;-83
2021/12/19 15:07:25;;;;;;;;;;;;;;;;;;5076162;28;1286;-82
2021/12/19 15:09:59;;;;;;;;;;;;;;;;;;5065504;28;1144;-83
2021/12/19 15:12:24;;;;;;;;;;;;;;;;;;5076174;28;1199;-84
2021/12/19 15:14:49;;;;;;;;;;;;;;;;;;5058664;28;1284;-83
2021/12/19 15:17:15;;;;;;;;;;;;;;;;;;5051889;28;1235;-84
2021/12/19 15:19:40;;;;;;;;;;;;;;;;;;5064680;28;1947;-83
2021/12/19 15:22:05;;;;;;;;;;;;;;;;;;5071930;28;1166;-83
2021/12/19 15:24:30;;;;;;;;;;;;;;;;;;5080010;28;1206;-83
2021/12/19 15:26:57;;;;;;;;;;;;;;;;;;5079223;28;1052;-82
2021/12/19 15:29:23;;;;;;;;;;;;;;;;;;5075887;28;1257;-84
2021/12/19 15:31:50;;;;;;;;;;;;;;;;;;5053939;28;1127;-83
2021/12/19 15:34:15;;;;;;;;;;;;;;;;;;5058492;28;1372;-83
2021/12/19 15:36:42;;;;;;;;;;;;;;;;;;5085808;28;1148;-83
2021/12/19 15:39:08;;;;;;;;;;;;;;;;;;5076224;28;1902;-83
2021/12/19 15:41:34;;;;;;;;;;;;;;;;;;5057186;28;1208;-83
2021/12/19 15:44:03;;;;;;;;;;;;;;;;;;5066004;28;1284;-83
2021/12/19 15:46:28;;;;;;;;;;;;;;;;;;5076826;28;1181;-84
2021/12/19 15:48:54;;;;;;;;;;;;;;;;;;5073147;28;1164;-82
2021/12/19 15:51:19;;;;;;;;;;;;;;;;;;5064728;28;1144;-84
2021/12/19 15:53:45;;;;;;;;;;;;;;;;;;5049056;28;1301;-83
2021/12/19 15:56:10;;;;;;;;;;;;;;;;;;5051586;28;1442;-83
2021/12/19 15:58:36;;;;;;;;;;;;;;;;;;5081784;28;1180;-80
2021/12/19 16:01:01;;;;;;;;;;;;;;;;;;5071981;28;1894;-83
2021/12/19 16:03:26;;;;;;;;;;;;;;;;;;5078862;28;1199;-83
2021/12/19 16:05:52;;;;;;;;;;;;;;;;;;5050628;28;1190;-83
2021/12/19 16:08:18;;;;;;;;;;;;;;;;;;5085491;28;1149;-83
2021/12/19 16:10:43;;;;;;;;;;;;;;;;;;5061691;28;1242;-83
2021/12/19 16:13:09;;;;;;;;;;;;;;;;;;5046587;28;1197;-83
2021/12/19 16:15:34;;;;;;;;;;;;;;;;;;5050753;28;1202;-84
2021/12/19 16:18:08;;;;;;;;;;;;;;;;;;5049651;28;1332;-83
2021/12/19 16:20:33;;;;;;;;;;;;;;;;;;5069354;28;1956;-84
2021/12/19 16:23:00;;;;;;;;;;;;;;;;;;5085617;28;1491;-83
2021/12/19 16:25:30;;;;;;;;;;;;;;;;;;5081168;28;1201;-83
2021/12/19 16:27:55;;;;;;;;;;;;;;;;;;5066122;28;1172;-83
2021/12/19 16:30:21;;;;;;;;;;;;;;;;;;5059453;28;1193;-84
2021/12/19 16:32:50;;;;;;;;;;;;;;;;;;5078974;28;1175;-82
2021/12/19 16:35:17;;;;;;;;;;;;;;;;;;5067333;28;1288;-81
2021/12/19 16:37:43;;;;;;;;;;;;;;;;;;5075697;28;1156;-83
2021/12/19 16:40:10;;;;;;;;;;;;;;;;;;5051613;28;1981;-82
2021/12/19 16:45:02;;;;;;;;;;;;;;;;;;5087704;28;1203;-84
2021/12/19 16:47:28;;;;;;;;;;;;;;;;;;5074454;28;1175;-82
2021/12/19 16:49:53;;;;;;;;;;;;;;;;;;5073860;28;1120;-83
2021/12/19 16:52:19;;;;;;;;;;;;;;;;;;5065518;28;1163;-84
2021/12/19 16:54:45;;;;;;;;;;;;;;;;;;5067588;28;1156;-84
2021/12/19 16:57:11;;;;;;;;;;;;;;;;;;5062720;28;1148;-84
2021/12/19 16:59:36;;;;;;;;;;;;;;;;;;5087415;28;1886;-84
2021/12/19 17:02:02;;;;;;;;;;;;;;;;;;5084371;28;1165;-83
2021/12/19 17:04:28;;;;;;;;;;;;;;;;;;5080528;28;1302;-83
2021/12/19 17:06:54;;;;;;;;;;;;;;;;;;5072627;28;1303;-82
2021/12/19 17:09:19;;;;;;;;;;;;;;;;;;5086058;28;1100;-84
2021/12/19 17:11:51;;;;;;;;;;;;;;;;;;5088186;28;1175;-83
2021/12/19 17:14:17;;;;;;;;;;;;;;;;;;5081946;28;1216;-84
2021/12/19 17:16:45;;;;;;;;;;;;;;;;;;5086090;28;1314;-84
2021/12/19 17:19:10;;;;;;;;;;;;;;;;;;5085613;28;1952;-84
2021/12/19 17:21:36;;;;;;;;;;;;;;;;;;5069655;28;1207;-84
2021/12/19 17:24:03;;;;;;;;;;;;;;;;;;5085875;28;1227;-83
2021/12/19 17:26:31;;;;;;;;;;;;;;;;;;5086476;28;1266;-84
2021/12/19 17:28:57;;;;;;;;;;;;;;;;;;5077791;28;1287;-83
2021/12/19 17:31:22;;;;;;;;;;;;;;;;;;5067592;28;1136;-84
2021/12/19 17:33:51;;;;;;;;;;;;;;;;;;5053911;28;1263;-82
2021/12/19 17:36:29;;;;;;;;;;;;;;;;;;5069399;28;1188;-83
2021/12/19 17:38:55;;;;;;;;;;;;;;;;;;5070620;28;1213;-82
2021/12/19 17:41:21;;;;;;;;;;;;;;;;;;5070703;28;1914;-82
2021/12/19 17:43:48;;;;;;;;;;;;;;;;;;5089505;28;1166;-82
2021/12/19 17:46:15;;;;;;;;;;;;;;;;;;5095922;28;1186;-82
2021/12/19 17:48:40;;;;;;;;;;;;;;;;;;5105022;28;1129;-82
2021/12/19 17:51:06;;;;;;;;;;;;;;;;;;5108323;28;1128;-83
2021/12/19 17:53:32;;;;;;;;;;;;;;;;;;5099309;28;1168;-82
2021/12/19 17:55:57;;;;;;;;;;;;;;;;;;5093799;28;1252;-82
2021/12/19 17:58:23;;;;;;;;;;;;;;;;;;5097575;28;1172;-83
2021/12/19 18:00:49;;;;;;;;;;;;;;;;;;5099620;28;1894;-83
2021/12/19 18:03:14;;;;;;;;;;;;;;;;;;5098993;28;1183;-83
2021/12/19 18:05:40;;;;;;;;;;;;;;;;;;5083920;28;1261;-82
2021/12/19 18:08:07;;;;;;;;;;;;;;;;;;5079614;28;1194;-82
2021/12/19 18:10:33;;;;;;;;;;;;;;;;;;5094996;28;1294;-82
2021/12/19 18:12:58;;;;;;;;;;;;;;;;;;5075153;28;1181;-83
2021/12/19 18:15:24;;;;;;;;;;;;;;;;;;5068078;28;1166;-82
2021/12/19 18:17:51;;;;;;;;;;;;;;;;;;5052900;28;1286;-82
2021/12/19 18:20:17;;;;;;;;;;;;;;;;;;5068511;28;1882;-83